createdAt,value
2019-05-15T00:01:59.018Z,100874.41
2019-05-15T00:04:38.236Z,100876.55
2019-05-15T00:10:48.453Z,100870.80
2019-05-15T00:13:43.499Z,100874.75
2019-05-15T00:16:22.648Z,100876.77
2019-05-15T00:18:58.894Z,100877.81
2019-05-15T00:21:31.988Z,100871.66
2019-05-15T00:24:13.224Z,100872.17
2019-05-15T00:26:48.072Z,100871.30
2019-05-15T00:29:19.951Z,100864.83
2019-05-15T00:31:51.970Z,100871.45
2019-05-15T00:34:28.459Z,100879.28
2019-05-15T00:37:05.111Z,100883.05
2019-05-15T00:39:42.267Z,100890.63
2019-05-15T00:42:13.951Z,100893.57
2019-05-15T00:44:45.084Z,100892.14
2019-05-15T00:47:18.091Z,100888.84
2019-05-15T00:49:49.624Z,100893.92
2019-05-15T00:52:28.447Z,100885.79
2019-05-15T00:55:08.663Z,100886.80
2019-05-15T01:01:19.337Z,100889.58
2019-05-15T01:04:03.714Z,100890.71
2019-05-15T01:06:39.911Z,100892.72
2019-05-15T01:09:18.705Z,100892.23
2019-05-15T01:11:49.708Z,100895.48
2019-05-15T01:14:20.577Z,100888.63
2019-05-15T01:16:51.347Z,100895.86
2019-05-15T01:19:22.492Z,100894.25
2019-05-15T01:21:53.805Z,100900.70
2019-05-15T01:24:24.612Z,100902.08
2019-05-15T01:26:55.723Z,100895.70
2019-05-15T01:29:38.387Z,100899.11
2019-05-15T01:32:19.100Z,100897.95
2019-05-15T01:34:50.246Z,100896.97
2019-05-15T01:37:21.183Z,100895.39
2019-05-15T01:39:51.857Z,100902.91
2019-05-15T01:42:27.873Z,100904.03
2019-05-15T01:44:58.945Z,100900.54
2019-05-15T01:47:30.135Z,100896.94
2019-05-15T01:50:02.701Z,100902.12
2019-05-15T01:52:34.497Z,100899.27
2019-05-15T01:55:05.744Z,100905.44
2019-05-15T01:57:38.438Z,100906.27
2019-05-15T02:00:10.045Z,100909.66
2019-05-15T02:02:40.657Z,100906.57
2019-05-15T02:05:11.388Z,100908.66
2019-05-15T02:07:41.983Z,100901.67
2019-05-15T02:10:13.253Z,100906.12
2019-05-15T02:12:43.772Z,100904.83
2019-05-15T02:15:14.448Z,100912.63
2019-05-15T02:17:44.990Z,100914.89
2019-05-15T02:20:15.589Z,100910.95
2019-05-15T02:22:48.373Z,100912.42
2019-05-15T02:25:19.145Z,100914.27
2019-05-15T02:27:49.645Z,100916.04
2019-05-15T02:30:28.490Z,100916.23
2019-05-15T02:32:52.667Z,100911.69
2019-05-15T02:35:23.171Z,100909.75
2019-05-15T02:37:53.647Z,100917.31
2019-05-15T02:40:24.388Z,100921.20
2019-05-15T02:42:55.367Z,100919.43
2019-05-15T02:45:26.036Z,100916.36
2019-05-15T02:47:59.482Z,100918.73
2019-05-15T02:50:29.378Z,100915.48
2019-05-15T02:53:01.079Z,100913.22
2019-05-15T02:55:31.543Z,100914.28
2019-05-15T02:58:02.086Z,100911.72
2019-05-15T03:00:44.000Z,100915.66
2019-05-15T03:03:05.570Z,100912.91
2019-05-15T03:05:36.008Z,100917.85
2019-05-15T03:08:09.300Z,100908.64
2019-05-15T03:10:40.666Z,100910.90
2019-05-15T03:13:10.959Z,100911.69
2019-05-15T03:15:41.391Z,100917.09
2019-05-15T03:18:11.900Z,100917.11
2019-05-15T03:20:42.356Z,100912.11
2019-05-15T03:23:12.979Z,100915.31
2019-05-15T03:25:49.514Z,100914.48
2019-05-15T03:28:20.041Z,100909.39
2019-05-15T03:31:15.476Z,100910.41
2019-05-15T03:33:28.002Z,100912.59
2019-05-15T03:36:01.703Z,100912.59
2019-05-15T03:38:29.953Z,100916.22
2019-05-15T03:41:00.956Z,100907.92
2019-05-15T03:43:31.841Z,100905.78
2019-05-15T03:46:02.380Z,100905.83
2019-05-15T03:48:33.001Z,100910.36
2019-05-15T03:51:04.246Z,100913.99
2019-05-15T03:53:39.922Z,100915.32
2019-05-15T03:56:10.163Z,100910.69
2019-05-15T03:58:40.761Z,100913.88
2019-05-15T04:01:28.230Z,100916.30
2019-05-15T04:03:43.647Z,100911.14
2019-05-15T04:06:14.103Z,100904.05
2019-05-15T04:08:44.666Z,100912.26
2019-05-15T04:11:15.301Z,100909.06
2019-05-15T04:13:45.971Z,100915.28
2019-05-15T04:16:19.129Z,100914.33
2019-05-15T04:18:49.294Z,100907.56
2019-05-15T04:21:20.339Z,100910.14
2019-05-15T04:23:53.015Z,100915.41
2019-05-15T04:26:25.177Z,100917.72
2019-05-15T04:29:00.154Z,100921.08
2019-05-15T04:31:41.165Z,100920.88
2019-05-15T04:34:02.094Z,100934.20
2019-05-15T04:36:32.867Z,100938.61
2019-05-15T04:39:05.915Z,100934.58
2019-05-15T04:41:39.341Z,100936.86
2019-05-15T04:44:10.350Z,100930.53
2019-05-15T04:46:40.972Z,100940.25
2019-05-15T04:49:11.915Z,100941.07
2019-05-15T04:51:42.554Z,100938.08
2019-05-15T04:54:14.015Z,100936.98
2019-05-15T04:56:44.622Z,100936.14
2019-05-15T04:59:18.808Z,100943.30
2019-05-15T05:01:51.299Z,100950.48
2019-05-15T05:04:20.937Z,100952.64
2019-05-15T05:06:54.476Z,100956.78
2019-05-15T05:09:25.303Z,100960.07
2019-05-15T05:11:58.279Z,100960.58
2019-05-15T05:14:29.133Z,100960.30
2019-05-15T05:17:00.347Z,100963.83
2019-05-15T05:19:33.071Z,100965.99
2019-05-15T05:22:07.771Z,100969.02
2019-05-15T05:24:38.733Z,100969.45
2019-05-15T05:27:09.655Z,100969.12
2019-05-15T05:29:40.604Z,100972.13
2019-05-15T05:32:11.562Z,100975.14
2019-05-15T05:34:43.300Z,100975.86
2019-05-15T05:37:14.650Z,100974.71
2019-05-15T05:39:45.682Z,100975.12
2019-05-15T05:42:35.473Z,100975.70
2019-05-15T05:45:09.997Z,100979.14
2019-05-15T05:47:42.473Z,100973.14
2019-05-15T05:50:18.939Z,100975.75
2019-05-15T05:52:50.289Z,100975.91
2019-05-15T05:55:22.867Z,100981.88
2019-05-15T05:57:59.729Z,100975.81
2019-05-15T06:00:42.833Z,100972.45
2019-05-15T06:03:28.860Z,100970.34
2019-05-15T06:06:02.940Z,100972.42
2019-05-15T06:08:48.594Z,100973.42
2019-05-15T06:18:19.367Z,100977.68
2019-05-15T06:20:49.393Z,100966.90
2019-05-15T06:23:24.251Z,100972.12
2019-05-15T06:26:01.171Z,100969.34
2019-05-15T06:28:33.954Z,100968.70
2019-05-15T06:31:16.155Z,100972.78
2019-05-15T06:33:51.189Z,100971.88
2019-05-15T06:36:25.410Z,100978.88
2019-05-15T06:39:08.328Z,100975.47
2019-05-15T06:41:39.364Z,100978.78
2019-05-15T06:44:23.102Z,100981.88
2019-05-15T06:46:55.671Z,100981.66
2019-05-15T06:49:30.372Z,100975.13
2019-05-15T07:04:31.703Z,100974.30
2019-05-15T07:07:11.139Z,100970.41
2019-05-15T07:10:08.704Z,100965.70
2019-05-15T07:13:12.044Z,100970.70
2019-05-15T07:15:58.458Z,100967.05
2019-05-15T07:21:57.951Z,100974.34
2019-05-15T07:24:34.952Z,100976.28
2019-05-15T07:27:15.622Z,100970.56
2019-05-15T07:30:07.740Z,100971.72
2019-05-15T07:33:10.113Z,100967.66
2019-05-15T07:39:28.775Z,100966.05
2019-05-15T07:42:11.627Z,100968.57
2019-05-15T07:44:59.565Z,100970.81
2019-05-15T07:47:40.746Z,100973.75
2019-05-15T07:50:27.049Z,100966.20
2019-05-15T07:53:02.592Z,100963.69
2019-05-15T07:55:39.565Z,100963.16
2019-05-15T07:58:40.893Z,100966.30
2019-05-15T08:01:24.468Z,100968.78
2019-05-15T08:04:14.320Z,100974.30
2019-05-15T08:06:38.981Z,100973.23
2019-05-15T08:09:13.048Z,100976.42
2019-05-15T08:11:53.538Z,100972.21
2019-05-15T08:18:07.620Z,100973.13
2019-05-15T08:21:42.007Z,100967.80
2019-05-15T08:36:38.683Z,100971.27
2019-05-15T08:46:38.710Z,100985.27
2019-05-15T08:49:53.112Z,100980.63
2019-05-15T08:56:35.387Z,100973.80
2019-05-15T08:59:58.186Z,100981.04
2019-05-15T09:16:24.584Z,100973.48
2019-05-15T09:19:31.193Z,100969.45
2019-05-15T09:22:33.297Z,100968.12
2019-05-15T09:28:49.153Z,100969.67
2019-05-15T09:31:39.134Z,100959.17
2019-05-15T09:34:46.408Z,100959.22
2019-05-15T09:37:52.671Z,100956.17
2019-05-15T09:40:08.869Z,100957.20
2019-05-15T09:42:40.219Z,100957.27
2019-05-15T09:45:58.202Z,100968.68
2019-05-15T09:53:30.049Z,100973.94
2019-05-15T10:03:03.189Z,100973.77
2019-05-15T10:06:31.371Z,100976.72
2019-05-15T10:12:33.892Z,100976.80
2019-05-15T10:15:24.057Z,100968.76
2019-05-15T10:17:59.521Z,100976.23
2019-05-15T10:20:42.731Z,100969.13
2019-05-15T10:23:19.078Z,100968.45
2019-05-15T10:25:53.516Z,100969.63
2019-05-15T10:57:42.330Z,100961.19
2019-05-15T11:29:02.051Z,100949.23
2019-05-15T11:52:25.252Z,100946.72
2019-05-15T11:59:11.306Z,100936.36
2019-05-15T12:02:12.635Z,100934.88
2019-05-15T12:26:56.164Z,100923.86
2019-05-15T12:29:04.924Z,100929.46
2019-05-15T12:59:52.851Z,100920.37
2019-05-15T13:53:12.783Z,100916.19
2019-05-15T15:16:42.117Z,100904.27
2019-05-15T15:19:53.354Z,100904.84
2019-05-15T15:22:39.576Z,100897.36
2019-05-15T15:25:40.195Z,100900.65
2019-05-15T15:40:52.303Z,100898.11
2019-05-15T15:50:33.056Z,100900.41
2019-05-15T15:53:22.959Z,100892.84
2019-05-15T16:10:51.893Z,100886.36
2019-05-15T16:18:50.561Z,100885.66
2019-05-15T16:39:21.616Z,100888.55
2019-05-15T16:42:19.076Z,100888.41
2019-05-15T16:45:16.537Z,100895.67
2019-05-15T17:01:56.176Z,100897.47
2019-05-15T17:04:38.889Z,100892.84
2019-05-15T17:07:30.514Z,100891.33
2019-05-15T17:10:03.505Z,100890.77
2019-05-15T17:12:42.328Z,100889.78
2019-05-15T17:15:21.252Z,100893.98
2019-05-15T17:18:13.082Z,100889.15
2019-05-15T17:20:53.339Z,100883.53
2019-05-15T17:23:30.524Z,100890.41
2019-05-15T17:26:08.726Z,100897.53
2019-05-15T17:28:39.880Z,100895.16
2019-05-15T17:31:17.952Z,100892.23
2019-05-15T17:33:58.235Z,100892.39
2019-05-15T17:36:38.228Z,100895.77
2019-05-15T17:39:11.706Z,100899.69
2019-05-15T17:41:48.266Z,100904.19
2019-05-15T17:44:22.170Z,100902.11
2019-05-15T17:46:55.283Z,100906.89
2019-05-15T17:49:29.773Z,100908.84
2019-05-15T17:52:05.253Z,100908.20
2019-05-15T17:54:44.367Z,100912.72
2019-05-15T17:57:28.623Z,100913.98
2019-05-15T17:59:50.685Z,100923.69
2019-05-15T18:02:28.440Z,100916.80
2019-05-15T18:05:00.400Z,100924.91
2019-05-15T18:07:38.852Z,100924.94
2019-05-15T18:10:10.884Z,100926.09
2019-05-15T18:12:43.360Z,100937.13
2019-05-15T18:15:17.063Z,100934.12
2019-05-15T18:17:51.064Z,100936.11
2019-05-15T18:20:33.063Z,100939.71
2019-05-15T18:23:08.463Z,100933.91
2019-05-15T18:25:41.301Z,100929.23
2019-05-15T18:28:18.729Z,100926.14
2019-05-15T18:30:50.345Z,100923.63
2019-05-15T18:33:23.404Z,100928.36
2019-05-15T18:36:01.859Z,100924.80
2019-05-15T18:38:34.841Z,100934.22
2019-05-15T18:41:05.684Z,100935.88
2019-05-15T18:43:38.315Z,100938.35
2019-05-15T18:46:13.077Z,100935.06
2019-05-15T18:48:49.751Z,100937.23
2019-05-15T18:51:23.209Z,100939.47
2019-05-15T18:53:58.650Z,100939.96
2019-05-15T18:56:29.877Z,100936.37
2019-05-15T18:59:05.495Z,100944.39
2019-05-15T19:01:39.371Z,100934.69
2019-05-15T19:04:10.708Z,100937.70
2019-05-15T19:06:47.981Z,100937.71
2019-05-15T19:09:19.017Z,100937.73
2019-05-15T19:11:50.322Z,100936.32
2019-05-15T19:14:21.565Z,100936.30
2019-05-15T19:16:59.953Z,100935.45
2019-05-15T19:19:34.915Z,100929.92
2019-05-15T19:22:08.630Z,100935.19
2019-05-15T19:24:40.262Z,100941.00
2019-05-15T19:27:11.296Z,100935.70
2019-05-15T19:29:43.531Z,100938.98
2019-05-15T19:32:14.935Z,100939.74
2019-05-15T19:34:48.570Z,100940.62
2019-05-15T19:37:19.651Z,100935.43
2019-05-15T19:39:58.464Z,100934.55
2019-05-15T19:42:30.740Z,100930.09
2019-05-15T19:45:05.356Z,100929.56
2019-05-15T19:47:38.417Z,100931.98
2019-05-15T19:50:09.389Z,100930.82
2019-05-15T19:52:43.499Z,100924.17
2019-05-15T19:55:14.892Z,100931.92
2019-05-15T19:57:49.211Z,100931.34
2019-05-15T20:00:22.148Z,100929.95
2019-05-15T20:02:53.400Z,100929.38
2019-05-15T20:05:24.895Z,100930.78
2019-05-15T20:07:55.936Z,100931.34
2019-05-15T20:10:28.981Z,100929.96
2019-05-15T20:13:00.348Z,100930.47
2019-05-15T20:15:31.065Z,100932.65
2019-05-15T20:18:02.526Z,100929.92
2019-05-15T20:20:33.736Z,100930.72
2019-05-15T20:23:05.157Z,100930.69
2019-05-15T20:25:38.250Z,100937.59
2019-05-15T20:28:12.212Z,100933.95
2019-05-15T20:30:43.210Z,100929.26
2019-05-15T20:33:14.440Z,100927.03
2019-05-15T20:35:45.247Z,100936.39
2019-05-15T20:38:16.732Z,100933.40
2019-05-15T20:40:48.570Z,100931.97
2019-05-15T20:43:21.323Z,100929.38
2019-05-15T20:45:52.801Z,100939.36
2019-05-15T20:48:23.459Z,100929.50
2019-05-15T20:51:05.647Z,100922.28
2019-05-15T20:53:34.525Z,100922.81
2019-05-15T20:56:08.816Z,100920.08
2019-05-15T20:58:58.301Z,100921.46
2019-05-15T21:01:30.004Z,100926.07
2019-05-15T21:04:28.052Z,100924.37
2019-05-15T21:07:12.010Z,100924.44
2019-05-15T21:09:58.804Z,100926.38
2019-05-15T21:13:18.764Z,100932.70
2019-05-15T21:16:05.009Z,100922.83
2019-05-15T21:18:41.550Z,100921.71
2019-05-15T21:21:14.464Z,100919.45
2019-05-15T21:23:49.429Z,100918.00
2019-05-15T21:26:20.360Z,100928.98
2019-05-15T21:28:54.761Z,100928.66
2019-05-15T21:31:28.975Z,100928.47
2019-05-15T21:34:02.063Z,100926.16
2019-05-15T21:36:35.053Z,100929.39
2019-05-15T21:39:09.574Z,100931.02
2019-05-15T21:41:42.319Z,100929.13
2019-05-15T21:44:32.854Z,100926.38
2019-05-15T21:47:08.168Z,100921.60
2019-05-15T21:49:39.712Z,100931.54
2019-05-15T21:52:10.596Z,100936.72
2019-05-15T21:54:41.798Z,100933.88
2019-05-15T21:57:32.305Z,100936.41
2019-05-15T21:59:45.803Z,100933.88
2019-05-15T22:02:18.208Z,100927.67
2019-05-15T22:04:55.773Z,100927.55
2019-05-15T22:07:28.613Z,100920.66
2019-05-15T22:09:59.753Z,100920.18
2019-05-15T22:12:30.998Z,100921.69
2019-05-15T22:15:01.885Z,100920.11
2019-05-15T22:17:32.467Z,100916.40
2019-05-15T22:20:03.431Z,100910.55
2019-05-15T22:22:34.411Z,100905.46
2019-05-15T22:25:11.240Z,100906.92
2019-05-15T22:27:41.565Z,100909.69
2019-05-15T22:30:14.054Z,100907.86
2019-05-15T22:32:44.678Z,100913.88
2019-05-15T22:35:15.272Z,100915.86
2019-05-15T22:37:45.707Z,100918.69
2019-05-15T22:40:18.308Z,100920.92
2019-05-15T22:42:48.938Z,100916.88
2019-05-15T22:45:19.541Z,100913.38
2019-05-15T22:47:49.991Z,100911.23
2019-05-15T22:50:20.440Z,100907.86
2019-05-15T22:52:50.872Z,100911.47
2019-05-15T22:55:21.397Z,100917.36
2019-05-15T22:57:51.866Z,100913.54
2019-05-15T23:00:22.445Z,100916.17
2019-05-15T23:02:52.872Z,100918.53
2019-05-15T23:05:28.154Z,100921.89
2019-05-15T23:07:55.606Z,100923.78
2019-05-15T23:10:28.918Z,100924.38
2019-05-15T23:12:58.356Z,100923.84
2019-05-15T23:15:28.891Z,100923.01
2019-05-15T23:17:59.335Z,100924.45
2019-05-15T23:20:29.807Z,100921.90
2019-05-15T23:23:00.252Z,100929.44
2019-05-15T23:25:30.746Z,100929.48
2019-05-15T23:28:01.192Z,100923.52
2019-05-15T23:30:31.659Z,100925.77
2019-05-15T23:33:02.110Z,100924.13
2019-05-15T23:35:37.541Z,100929.08
2019-05-15T23:38:04.800Z,100921.03
2019-05-15T23:40:35.409Z,100924.79
2019-05-15T23:43:08.678Z,100915.92
2019-05-15T23:45:38.967Z,100911.64
2019-05-15T23:48:09.629Z,100911.34
2019-05-15T23:50:40.117Z,100911.37
2019-05-15T23:53:10.558Z,100915.05
2019-05-15T23:55:41.038Z,100913.73
2019-05-15T23:58:11.478Z,100915.77
